Latest Weather Observations for Blackwater Airport

IDQ60801

Issued at 7:52 pm EST Sunday 29 March 2020 (issued every 10 minutes, with the page automatically refreshed every 10 minutes)

About weather observations | Map of weather stations | Latest weather observations for QLD | Other Formats
Station Details ID: 035134 Name: BLACKWATER AIRPORT Lat: -23.60 Lon: 148.81 Height: 192.95 m
Data from the previous 72 hours. | See also: Recent months at Blackwater Airport
Date/Time
EST
Temp
°C
App
Temp
°C
Dew
Point
°C
Rel
Hum
%
Delta-T
°C
Wind Press
QNH
hPa
Press
MSL
hPa
Rain since
9am
mm
Dir  Spd
km/h
Gust
km/h
Spd
kts
Gust
kts
29/07:30pm 26.3 25.8 16.0 53 6.4 E 13 15 7 8 1015.2 1014.0 0.0
29/07:00pm 26.9 26.4 15.9 51 6.8 E 13 15 7 8 1014.7 1013.5 0.0
29/06:30pm 27.4 26.7 15.4 48 7.4 E 13 17 7 9 1014.5 1013.3 0.0
29/06:00pm 28.5 27.3 15.1 44 8.2 E 15 20 8 11 1014.3 1013.1 0.0
29/05:30pm 29.5 28.5 14.5 40 9.2 ENE 13 20 7 11 1013.9 1012.8 0.0
29/05:00pm 30.1 28.6 13.0 35 10.2 E 13 19 7 10 1013.6 1012.5 0.0
29/04:30pm 30.9 30.1 14.1 36 10.2 ENE 11 20 6 11 1013.5 1012.4 0.0
29/04:00pm 31.1 30.5 14.7 37 10.1 ENE 11 20 6 11 1013.5 1012.4 0.0
29/03:30pm 32.2 31.4 15.2 35 10.6 ENE 13 26 7 14 1013.6 1012.5 0.0
29/03:00pm 31.1 29.5 15.1 38 9.9 E 17 30 9 16 1013.7 1012.6 0.0
29/02:30pm 30.0 29.1 14.9 39 9.3 E 13 22 7 12 1014.2 1013.0 0.0
29/02:00pm 29.7 28.6 15.4 42 8.9 E 15 22 8 12 1014.6 1013.4 0.0
29/01:30pm 29.3 27.8 15.4 42 8.6 E 17 24 9 13 1015.1 1013.9 0.0
29/01:00pm 28.3 27.0 15.9 47 7.7 E 17 26 9 14 1015.7 1014.5 0.0
29/12:30pm 29.6 28.4 17.1 47 7.9 ENE 19 30 10 16 1015.9 1014.7 0.0
29/12:00pm 29.7 29.1 17.5 48 7.8 ENE 17 26 9 14 1016.3 1015.1 0.0
29/11:30am 29.3 29.6 17.8 50 7.4 ENE 13 26 7 14 1016.8 1015.6 0.0
29/11:00am 27.3 26.7 17.5 55 6.2 ENE 17 24 9 13 1017.3 1016.2 0.0
29/10:30am 27.5 26.7 17.9 55 6.1 E 19 32 10 17 1017.3 1016.2 0.0
29/10:00am 26.7 25.6 17.8 58 5.6 ENE 20 30 11 16 1017.4 1016.3 0.0
29/09:30am 27.6 26.9 18.3 57 6.0 ENE 19 28 10 15 1017.4 1016.3 0.0
29/09:00am 26.1 25.3 18.0 61 5.1 E 19 28 10 15 1017.5 1016.4 0.0
29/08:30am 25.1 25.6 18.3 66 4.3 E 13 20 7 11 1017.5 1016.4 0.0
29/08:00am 24.4 23.9 17.9 67 4.1 E 17 26 9 14 1017.3 1016.2 0.0
29/07:30am 23.3 24.4 18.0 72 3.3 E 9 13 5 7 1017.1 1016.0 0.0
29/07:00am 22.3 23.4 17.9 76 2.8 E 9 13 5 7 1016.6 1015.4 0.0
29/06:30am 21.1 22.0 17.5 80 2.2 ESE 9 11 5 6 1016.4 1015.2 0.0
29/06:00am 20.6 21.1 17.4 82 2.0 E 11 15 6 8 1016.1 1014.9 0.0
29/05:30am 20.5 21.4 17.5 83 1.9 ESE 9 15 5 8 1015.8 1014.6 0.0
29/05:00am 20.8 21.9 18.0 84 1.7 ESE 9 15 5 8 1015.5 1014.3 0.0
29/04:30am 20.4 20.6 17.6 84 1.7 ENE 13 17 7 9 1015.3 1014.1 0.0
29/04:00am 20.7 21.7 17.7 83 1.9 E 9 13 5 7 1015.1 1013.9 0.0
29/03:30am 20.9 22.0 17.9 83 1.9 E 9 15 5 8 1015.3 1014.1 0.0
29/03:00am 20.8 21.4 17.8 83 1.9 ENE 11 13 6 7 1015.1 1013.9 0.0
29/02:30am 21.3 21.7 18.1 82 2.0 E 13 17 7 9 1015.4 1014.2 0.0
29/02:00am 21.5 21.4 17.9 80 2.2 E 15 20 8 11 1015.5 1014.3 0.0
29/01:30am 21.7 21.3 18.1 80 2.3 ENE 17 26 9 14 1016.1 1014.9 0.0
29/01:00am 22.1 21.2 18.1 78 2.5 ENE 20 28 11 15 1016.2 1015.0 0.0
29/12:30am 22.2 21.9 18.2 78 2.5 ENE 17 24 9 13 1016.7 1015.5 0.0
29/12:00am 22.4 22.1 18.2 77 2.6 ENE 17 24 9 13 1016.9 1015.7 0.0
 
Date/Time
EST
Temp
°C
App
Temp
°C
Dew
Point
°C
Rel
Hum
%
Delta-T
°C
Wind Press
QNH
hPa
Press
MSL
hPa
Rain since
9am
mm
Dir  Spd
km/h
Gust
km/h
Spd
kts
Gust
kts
28/11:30pm 22.6 22.6 18.2 76 2.8 ENE 15 20 8 11 1017.0 1015.8 0.0
28/11:00pm 22.9 22.5 18.0 74 3.1 ENE 17 26 9 14 1017.0 1015.8 0.0
28/10:30pm 23.2 23.7 18.3 74 3.1 ENE 13 17 7 9 1017.2 1016.1 0.0
28/10:00pm 24.0 23.4 18.4 71 3.6 ENE 19 28 10 15 1017.2 1016.1 0.0
28/09:30pm 24.9 23.6 18.1 66 4.3 ENE 22 30 12 16 1017.2 1016.1 0.0
28/09:00pm 25.2 24.4 17.1 60 5.1 E 17 24 9 13 1016.7 1015.5 0.0
28/08:30pm 25.4 25.8 16.3 57 5.6 ESE 9 13 5 7 1016.2 1015.0 0.0
28/08:00pm 25.9 26.0 16.5 56 5.8 ESE 11 13 6 7 1015.8 1014.6 0.0
28/07:30pm 25.5 25.6 16.6 58 5.5 E 11 15 6 8 1015.4 1014.2 0.0
28/07:00pm 25.7 25.7 16.3 56 5.8 E 11 15 6 8 1015.1 1013.9 0.0
28/06:30pm 26.6 26.2 16.2 52 6.4 E 13 17 7 9 1014.7 1013.5 0.0
28/06:00pm 27.5 26.7 16.1 49 7.1 E 15 24 8 13 1014.4 1013.2 0.0
28/05:30pm 28.5 28.1 16.1 47 7.7 E 13 17 7 9 1014.2 1013.0 0.0
28/05:00pm 28.2 26.9 15.8 47 7.7 ESE 17 20 9 11 1014.3 1013.1 0.0
28/04:30pm 29.1 27.3 15.6 44 8.4 E 19 32 10 17 1014.2 1013.0 0.0
28/04:00pm 29.0 27.5 16.2 46 8.0 E 19 28 10 15 1014.3 1013.1 0.0
28/03:30pm 29.1 28.4 16.3 46 8.0 E 15 26 8 14 1014.4 1013.2 0.0
28/03:00pm 29.8 28.9 16.9 45 8.2 E 17 26 9 14 1014.7 1013.5 0.0
28/02:30pm 29.0 27.7 16.9 48 7.6 E 19 26 10 14 1015.0 1013.8 0.0
28/02:00pm 28.8 27.4 17.0 49 7.5 ENE 20 28 11 15 1015.4 1014.2 0.0
28/01:30pm 28.4 26.9 16.7 49 7.4 ENE 20 33 11 18 1015.7 1014.5 0.0
28/01:00pm 28.1 26.8 16.7 50 7.2 ENE 19 30 10 16 1016.2 1015.0 0.0
28/12:30pm 27.8 27.0 17.0 51 6.8 E 17 32 9 17 1016.5 1015.3 0.0
28/12:00pm 28.4 27.1 16.7 49 7.3 ENE 19 32 10 17 1016.9 1015.7 0.0
28/11:30am 27.7 27.1 16.6 50 6.9 ESE 15 32 8 17 1017.5 1016.4 0.0
28/11:00am 28.3 27.4 16.9 50 7.2 E 17 24 9 13 1017.8 1016.7 0.0
28/10:30am 26.7 25.3 16.6 54 6.3 E 19 28 10 15 1018.2 1017.1 0.0
28/10:00am 27.2 26.1 17.7 56 6.0 E 20 28 11 15 1018.3 1017.2 0.0
28/09:30am 25.6 24.3 16.7 58 5.5 ESE 19 24 10 13 1018.5 1017.4 0.0
28/09:00am 25.6 24.0 16.5 57 5.6 E 20 33 11 18 1018.2 1017.1 0.0
28/08:30am 24.9 22.5 16.3 59 5.3 E 24 32 13 17 1017.8 1016.7 0.0
28/08:00am 23.5 23.2 15.5 60 4.8 SSE 11 15 6 8 1017.7 1016.6 0.0
28/07:30am 22.8 22.7 14.9 61 4.7 SSE 9 13 5 7 1017.5 1016.4 0.0
28/07:00am 21.4 21.9 15.0 67 3.8 SE 6 7 3 4 1017.3 1016.2 0.0
28/06:30am 19.9 19.6 14.5 71 3.2 ESE 9 13 5 7 1016.9 1015.7 0.0
28/06:00am 19.9 20.0 14.5 71 3.2 E 7 13 4 7 1016.8 1015.6 0.0
28/05:30am 20.6 20.3 14.3 67 3.7 ESE 9 13 5 7 1016.8 1015.6 0.0
28/05:00am 21.1 20.5 14.5 66 3.9 ESE 11 20 6 11 1016.5 1015.3 0.0
28/04:30am 21.4 20.5 14.8 66 3.9 E 13 17 7 9 1016.2 1015.0 0.0
28/04:00am 21.1 20.1 14.7 67 3.8 E 13 20 7 11 1016.3 1015.1 0.0
28/03:30am 21.3 20.7 15.6 70 3.4 E 13 19 7 10 1016.4 1015.2 0.0
28/03:00am 21.4 21.7 15.9 71 3.3 E 9 17 5 9 1016.4 1015.2 0.0
28/02:30am 21.0 21.5 15.5 71 3.3 E 7 9 4 5 1016.6 1015.4 0.0
28/02:00am 21.4 21.1 16.4 73 3.0 E 13 17 7 9 1016.9 1015.7 0.0
28/01:30am 21.7 21.6 16.9 74 3.0 E 13 20 7 11 1017.2 1016.1 0.0
28/01:00am 21.8 21.0 17.2 75 2.8 ENE 17 24 9 13 1017.3 1016.2 0.0
28/12:30am 22.0 21.3 17.4 75 2.9 ENE 17 22 9 12 1017.6 1016.5 0.0
28/12:00am 22.0 21.2 17.2 74 3.0 ENE 17 22 9 12 1017.6 1016.5 0.0
 
Date/Time
EST
Temp
°C
App
Temp
°C
Dew
Point
°C
Rel
Hum
%
Delta-T
°C
Wind Press
QNH
hPa
Press
MSL
hPa
Rain since
9am
mm
Dir  Spd
km/h
Gust
km/h
Spd
kts
Gust
kts
27/11:30pm 22.4 22.0 17.1 72 3.3 E 15 20 8 11 1018.0 1016.9 0.0
27/11:00pm 22.7 22.3 17.2 71 3.4 ENE 15 26 8 14 1018.2 1017.1 0.0
27/10:30pm 22.4 22.3 16.9 71 3.4 NE 13 19 7 10 1018.1 1017.0 0.0
27/10:00pm 23.3 22.1 17.1 68 3.8 NE 19 26 10 14 1018.0 1016.9 0.0
27/09:30pm 23.9 22.8 17.2 66 4.2 ENE 19 28 10 15 1017.9 1016.8 0.0
27/09:00pm 24.5 22.9 17.5 65 4.4 ENE 22 32 12 17 1017.5 1016.4 0.0
27/08:30pm 25.2 23.2 17.4 62 4.9 ENE 24 35 13 19 1017.2 1016.1 0.0
27/08:00pm 25.7 24.9 17.1 59 5.4 ENE 17 24 9 13 1016.8 1015.6 0.0
27/07:30pm 26.0 25.2 17.1 58 5.6 ENE 17 22 9 12 1016.3 1015.1 0.0
27/07:00pm 26.5 26.3 16.7 55 6.1 ENE 13 20 7 11 1015.8 1014.6 0.0
27/06:30pm 27.4 26.2 16.1 50 7.0 ENE 17 22 9 12 1015.5 1014.3 0.0
27/06:00pm 28.1 26.9 16.1 48 7.5 E 17 24 9 13 1015.1 1013.9 0.0
27/05:30pm 28.8 27.0 16.0 45 8.0 E 20 28 11 15 1014.9 1013.7 0.0
27/05:00pm 29.8 28.3 16.2 43 8.5 E 19 26 10 14 1014.6 1013.4 0.0
27/04:30pm 29.8 28.2 15.9 43 8.7 ENE 19 28 10 15 1014.5 1013.3 0.0
27/04:00pm 30.5 28.7 15.4 40 9.4 E 19 28 10 15 1014.5 1013.3 0.0
27/03:30pm 30.8 29.4 17.1 43 8.7 ENE 20 30 11 16 1014.6 1013.4 0.0
27/03:00pm 30.4 28.7 15.7 41 9.2 E 19 26 10 14 1014.8 1013.6 0.0
27/02:30pm 31.0 28.4 15.8 40 9.5 ENE 24 35 13 19 1015.1 1013.9 0.0
27/02:00pm 30.4 28.8 16.0 41 9.0 ENE 19 28 10 15 1015.6 1014.4 0.0
27/01:30pm 30.5 29.2 16.9 44 8.6 ENE 19 32 10 17 1016.1 1014.9 0.0
27/01:00pm 31.4 30.4 16.6 41 9.4 ENE 17 26 9 14 1016.6 1015.4 0.0
27/12:30pm 30.2 29.1 17.3 46 8.2 ENE 19 28 10 15 1017.0 1015.8 0.0
27/12:00pm 29.1 28.5 16.6 46 7.9 E 15 28 8 15 1017.5 1016.4 0.0
27/11:30am 29.1 27.5 16.6 46 7.9 ENE 20 30 11 16 1017.9 1016.8 0.0
27/11:00am 28.2 26.7 16.8 50 7.2 ENE 20 30 11 16 1018.2 1017.1 0.0
27/10:30am 27.8 26.5 17.3 52 6.6 ENE 20 30 11 16 1018.6 1017.5 0.0
27/10:00am 27.6 26.0 17.5 54 6.4 ENE 22 35 12 19 1018.9 1017.8 0.0
27/09:30am 27.0 24.9 18.0 58 5.7 ENE 26 37 14 20 1019.0 1017.9 0.0
27/09:00am 25.7 23.7 17.4 60 5.2 E 24 35 13 19 1019.0 1017.9 0.0
27/08:30am 25.6 23.3 17.5 61 5.1 E 26 35 14 19 1018.9 1017.8 0.0
27/08:00am 25.0 23.5 17.7 64 4.6 E 22 33 12 18 1018.5 1017.4 0.0
27/07:30am 24.1 22.9 17.6 67 4.1 E 20 28 11 15 1018.3 1017.2 0.0
27/07:00am 22.7 22.5 17.6 73 3.2 E 15 20 8 11 1018.0 1016.9 0.0
27/06:30am 21.5 22.2 17.1 76 2.7 ESE 9 11 5 6 1017.8 1016.7 0.0
27/06:00am 21.8 21.9 17.4 76 2.7 ESE 13 19 7 10 1017.6 1016.5 0.0
27/05:30am 21.6 21.8 17.6 78 2.5 E 13 19 7 10 1017.3 1016.2 0.0
27/05:00am 21.7 21.5 17.5 77 2.6 E 15 24 8 13 1016.9 1015.7 0.0
27/04:30am 21.6 21.3 17.4 77 2.6 E 15 22 8 12 1016.8 1015.6 0.0
27/04:00am 21.8 21.2 17.6 77 2.6 E 17 20 9 11 1016.5 1015.3 0.0
27/03:30am 21.8 21.1 17.4 76 2.7 E 17 24 9 13 1016.4 1015.2 0.0
27/03:00am 21.9 21.3 17.5 76 2.7 E 17 24 9 13 1016.5 1015.3 0.0
27/02:30am 22.0 22.2 17.6 76 2.7 E 13 20 7 11 1016.8 1015.6 0.0
27/02:00am 22.0 22.0 17.2 74 3.0 ENE 13 19 7 10 1017.1 1016.0 0.0
27/01:30am 21.8 21.6 16.7 73 3.1 ENE 13 19 7 10 1017.1 1016.0 0.0
27/01:00am 21.9 21.7 16.8 73 3.1 ENE 13 20 7 11 1017.2 1016.1 0.0
27/12:30am 22.2 22.0 16.7 71 3.4 ENE 13 19 7 10 1017.3 1016.2 0.0
27/12:00am 22.5 21.5 16.5 69 3.7 ENE 17 24 9 13 1017.4 1016.3 0.0
 
Date/Time
EST
Temp
°C
App
Temp
°C
Dew
Point
°C
Rel
Hum
%
Delta-T
°C
Wind Press
QNH
hPa
Press
MSL
hPa
Rain since
9am
mm
Dir  Spd
km/h
Gust
km/h
Spd
kts
Gust
kts
26/11:30pm 22.7 22.3 16.3 67 3.9 ENE 13 17 7 9 1017.4 1016.3 0.0
26/11:00pm 22.8 22.4 16.1 66 4.1 E 13 19 7 10 1017.4 1016.3 0.0
26/10:30pm 22.7 22.7 15.3 63 4.5 E 9 11 5 6 1017.6 1016.5 0.0
26/10:00pm 23.2 22.5 15.3 61 4.8 ENE 13 15 7 8 1017.5 1016.4 0.0
26/09:30pm 23.8 22.8 14.5 56 5.5 ENE 13 19 7 10 1017.5 1016.4 0.0
26/09:00pm 24.6 23.3 13.8 51 6.4 E 13 15 7 8 1017.2 1016.1 0.0
26/08:30pm 24.5 23.9 13.4 50 6.5 E 9 11 5 6 1017.0 1015.8 0.0
26/08:00pm 24.9 23.8 13.1 48 6.9 E 11 11 6 6 1016.7 1015.5 0.0

Other formats

Comma delimited format used in spreadsheet applications
http://www.bom.gov.au/fwo/IDQ60801/IDQ60801.94398.axf

JavaScript Object Notation format (JSON) in row-major order
http://www.bom.gov.au/fwo/IDQ60801/IDQ60801.94398.json

Data quality

Most of these data are generated automatically and are frequently updated. Quality checks on data are not normally performed. It is possible for incorrect values to appear. Refer to information at About Latest Weather Observations and please check the disclaimer before using these data.